Time;durP1;ratioP1;P1;durP2;ratioP2;P2;SDS_P1;SDS_P2;PMS_P1;PMS_P2;Temp;Humidity;BMP_temperature;BMP_pressure;BME280_temperature;BME280_humidity;BME280_pressure;Samples;Min_cycle;Max_cycle;Signal;HPM_P1;HPM_P2
2022/11/18 00:02:04;;;;;;;9.85;3.15;;;;;;;;;;5001741;28;20034;-42
2022/11/18 00:04:29;;;;;;;9.52;2.67;;;;;;;;;;5002238;28;20062;-41
2022/11/18 00:06:54;;;;;;;8.70;2.90;;;;;;;;;;5002849;28;20021;-41
2022/11/18 00:09:20;;;;;;;7.38;2.75;;;;;;;;;;5014749;28;20049;-42
2022/11/18 00:14:29;;;;;;;14.98;3.20;;;;;;;;;;5009116;28;20073;-42
2022/11/18 00:16:59;;;;;;;9.02;2.88;;;;;;;;;;4997852;28;20022;-42
2022/11/18 00:19:27;;;;;;;9.73;3.40;;;;;;;;;;4994993;28;20069;-41
2022/11/18 00:21:54;;;;;;;11.30;3.65;;;;;;;;;;5000458;28;20081;-42
2022/11/18 00:24:20;;;;;;;6.07;2.67;;;;;;;;;;4991455;28;20125;-41
2022/11/18 00:26:45;;;;;;;10.27;2.83;;;;;;;;;;5003424;28;20490;-44
2022/11/18 00:29:11;;;;;;;10.65;3.00;;;;;;;;;;4995220;28;20038;-42
2022/11/18 00:31:37;;;;;;;15.13;3.50;;;;;;;;;;4991040;28;20483;-42
2022/11/18 00:34:03;;;;;;;13.90;4.82;;;;;;;;;;5006121;28;20045;-42
2022/11/18 00:36:28;;;;;;;14.35;4.70;;;;;;;;;;5002185;28;20109;-42
2022/11/18 00:38:53;;;;;;;14.18;5.72;;;;;;;;;;5008892;28;20046;-42
2022/11/18 00:41:19;;;;;;;12.77;4.90;;;;;;;;;;4999253;28;20036;-42
2022/11/18 00:43:44;;;;;;;6.30;3.72;;;;;;;;;;5004556;28;20045;-42
2022/11/18 00:46:11;;;;;;;13.30;2.17;;;;;;;;;;5007314;28;20434;-45
2022/11/18 00:48:36;;;;;;;6.40;2.00;;;;;;;;;;4998429;28;20092;-41
2022/11/18 00:51:20;;;;;;;3.92;1.70;;;;;;;;;;5004371;28;20038;-43
2022/11/18 00:53:45;;;;;;;11.80;2.53;;;;;;;;;;4998231;28;20038;-41
2022/11/18 00:56:10;;;;;;;6.60;1.60;;;;;;;;;;5009739;28;20100;-42
2022/11/18 00:58:36;;;;;;;12.02;2.33;;;;;;;;;;5011061;28;20034;-42
2022/11/18 01:01:03;;;;;;;7.70;1.92;;;;;;;;;;4996682;28;20037;-44
2022/11/18 01:03:29;;;;;;;11.77;2.30;;;;;;;;;;4995276;28;20521;-42
2022/11/18 01:05:54;;;;;;;8.50;2.05;;;;;;;;;;5008333;28;20037;-42
2022/11/18 01:08:20;;;;;;;7.85;1.83;;;;;;;;;;5003693;28;20030;-42
2022/11/18 01:10:47;;;;;;;6.57;1.63;;;;;;;;;;4998180;28;20038;-42
2022/11/18 01:13:19;;;;;;;3.97;1.70;;;;;;;;;;4998794;28;20096;-42
2022/11/18 01:15:52;;;;;;;7.73;1.53;;;;;;;;;;4992557;28;20376;-41
2022/11/18 01:18:20;;;;;;;5.55;1.52;;;;;;;;;;5001207;28;20053;-43
2022/11/18 01:20:46;;;;;;;7.00;1.98;;;;;;;;;;4996973;28;20241;-41
2022/11/18 01:23:12;;;;;;;6.05;1.85;;;;;;;;;;4998961;28;20625;-42
2022/11/18 01:25:39;;;;;;;4.50;1.38;;;;;;;;;;4991652;28;20022;-42
2022/11/18 01:28:05;;;;;;;9.38;1.85;;;;;;;;;;4994624;28;20054;-42
2022/11/18 01:30:37;;;;;;;5.07;1.98;;;;;;;;;;4993887;28;20034;-42
2022/11/18 01:33:04;;;;;;;12.65;1.83;;;;;;;;;;4992066;28;20042;-43
2022/11/18 01:35:40;;;;;;;8.95;1.75;;;;;;;;;;5003488;28;20081;-42
2022/11/18 01:38:06;;;;;;;5.93;1.52;;;;;;;;;;4992806;28;20038;-43
2022/11/18 01:40:33;;;;;;;3.80;1.67;;;;;;;;;;4991027;28;20132;-44
2022/11/18 01:42:58;;;;;;;7.55;1.60;;;;;;;;;;5004708;28;20030;-41
2022/11/18 01:45:36;;;;;;;10.98;1.98;;;;;;;;;;5006491;28;20355;-42
2022/11/18 01:48:07;;;;;;;7.53;1.77;;;;;;;;;;5005857;28;20062;-42
2022/11/18 01:50:35;;;;;;;8.98;1.50;;;;;;;;;;5002410;28;20360;-43
2022/11/18 01:53:06;;;;;;;5.97;1.73;;;;;;;;;;4996066;28;20494;-41
2022/11/18 01:55:35;;;;;;;4.95;2.08;;;;;;;;;;5014718;28;20368;-41
2022/11/18 01:58:06;;;;;;;4.55;1.15;;;;;;;;;;4994019;28;20479;-42
2022/11/18 02:00:32;;;;;;;8.90;2.08;;;;;;;;;;5000537;28;20022;-44
2022/11/18 02:03:00;;;;;;;3.08;1.52;;;;;;;;;;4998911;28;20044;-41
2022/11/18 02:05:26;;;;;;;2.88;1.23;;;;;;;;;;4996427;28;20790;-42
2022/11/18 02:07:52;;;;;;;3.58;1.85;;;;;;;;;;4993240;28;20042;-41
2022/11/18 02:10:21;;;;;;;7.03;1.20;;;;;;;;;;5008242;28;20493;-42
2022/11/18 02:12:49;;;;;;;4.53;1.92;;;;;;;;;;5004342;28;20128;-42
2022/11/18 02:15:16;;;;;;;18.13;1.75;;;;;;;;;;4994203;28;20477;-42
2022/11/18 02:17:59;;;;;;;6.10;1.38;;;;;;;;;;5001220;28;20100;-42
2022/11/18 02:20:28;;;;;;;3.65;1.17;;;;;;;;;;4993632;28;20046;-41
2022/11/18 02:23:12;;;;;;;2.22;0.93;;;;;;;;;;4997124;28;20042;-43
2022/11/18 02:26:04;;;;;;;2.20;1.10;;;;;;;;;;5003094;28;20029;-42
2022/11/18 02:28:52;;;;;;;2.67;0.88;;;;;;;;;;4993790;28;20053;-42
2022/11/18 02:31:30;;;;;;;2.28;1.00;;;;;;;;;;4995782;28;20037;-44
2022/11/18 02:34:14;;;;;;;4.90;1.33;;;;;;;;;;4992600;28;20069;-42
2022/11/18 02:36:48;;;;;;;2.70;1.02;;;;;;;;;;4996379;28;20019;-43
2022/11/18 02:39:23;;;;;;;5.47;1.10;;;;;;;;;;4997312;28;20057;-41
2022/11/18 02:41:52;;;;;;;5.55;1.17;;;;;;;;;;4993507;28;20041;-43
2022/11/18 02:44:19;;;;;;;4.72;1.23;;;;;;;;;;4997798;28;20036;-43
2022/11/18 02:46:50;;;;;;;5.03;1.20;;;;;;;;;;5008695;28;20447;-41
2022/11/18 02:49:21;;;;;;;5.17;1.10;;;;;;;;;;4996938;28;20038;-42
2022/11/18 02:51:49;;;;;;;4.75;1.77;;;;;;;;;;5004726;28;20493;-41
2022/11/18 02:54:17;;;;;;;5.55;1.55;;;;;;;;;;5000744;28;21208;-41
2022/11/18 02:56:43;;;;;;;5.05;1.63;;;;;;;;;;4992338;28;20121;-43
2022/11/18 02:59:09;;;;;;;3.53;1.45;;;;;;;;;;5005268;28;20109;-42
2022/11/18 03:01:35;;;;;;;8.35;1.40;;;;;;;;;;5001778;28;20105;-41
2022/11/18 03:04:01;;;;;;;3.75;1.00;;;;;;;;;;5004051;28;20105;-41
2022/11/18 03:06:33;;;;;;;3.70;1.15;;;;;;;;;;5004538;28;20077;-46
2022/11/18 03:09:05;;;;;;;4.03;1.40;;;;;;;;;;4999195;28;20507;-43
2022/11/18 03:11:38;;;;;;;4.40;1.15;;;;;;;;;;5000352;28;20088;-41
2022/11/18 03:14:06;;;;;;;1.42;1.00;;;;;;;;;;4997469;28;20061;-41
2022/11/18 03:16:41;;;;;;;2.58;1.10;;;;;;;;;;4994627;28;20026;-41
2022/11/18 03:19:22;;;;;;;1.77;0.70;;;;;;;;;;4996994;28;20101;-42
2022/11/18 03:22:27;;;;;;;6.20;1.30;;;;;;;;;;4993011;28;20038;-42
2022/11/18 03:25:01;;;;;;;2.90;1.20;;;;;;;;;;5002054;28;20132;-43
2022/11/18 03:27:35;;;;;;;5.45;1.20;;;;;;;;;;4995871;28;20065;-43
2022/11/18 03:30:07;;;;;;;2.25;1.00;;;;;;;;;;5001230;28;20091;-42
2022/11/18 03:32:38;;;;;;;7.55;1.15;;;;;;;;;;5002924;28;20026;-42
2022/11/18 03:35:13;;;;;;;1.30;0.80;;;;;;;;;;5008273;28;20116;-42
2022/11/18 03:37:40;;;;;;;5.03;1.15;;;;;;;;;;4996521;28;20530;-42
2022/11/18 03:40:12;;;;;;;2.00;0.90;;;;;;;;;;5000955;28;20070;-43
2022/11/18 03:42:47;;;;;;;2.33;1.20;;;;;;;;;;5007562;28;20446;-41
2022/11/18 03:45:21;;;;;;;3.67;1.00;;;;;;;;;;4997559;28;20030;-42
2022/11/18 03:47:53;;;;;;;2.95;1.17;;;;;;;;;;5004044;28;20084;-41
2022/11/18 03:50:26;;;;;;;7.75;2.38;;;;;;;;;;5002193;28;20041;-41
2022/11/18 03:52:53;;;;;;;2.28;1.05;;;;;;;;;;4999413;28;20049;-41
2022/11/18 03:55:25;;;;;;;4.90;1.17;;;;;;;;;;5008384;28;20042;-42
2022/11/18 03:58:04;;;;;;;;;;;;;;;;;;5004774;28;20085;-41
2022/11/18 04:00:35;;;;;;;5.65;1.05;;;;;;;;;;5000609;28;19972;-42
2022/11/18 04:03:01;;;;;;;1.63;0.90;;;;;;;;;;4995056;28;20072;-43
2022/11/18 04:05:29;;;;;;;3.10;1.27;;;;;;;;;;4996147;28;20501;-42
2022/11/18 04:08:01;;;;;;;1.98;1.00;;;;;;;;;;5001533;28;20054;-43
2022/11/18 04:10:36;;;;;;;;;;;;;;;;;;4998538;28;20042;-41
2022/11/18 04:13:07;;;;;;;0.80;0.70;;;;;;;;;;4999005;28;20333;-43
2022/11/18 04:15:36;;;;;;;5.65;1.33;;;;;;;;;;4993597;28;20475;-41
2022/11/18 04:18:02;;;;;;;3.83;0.90;;;;;;;;;;4997706;28;20053;-42
2022/11/18 04:20:27;;;;;;;3.83;1.17;;;;;;;;;;4996886;28;20050;-41
2022/11/18 04:22:53;;;;;;;4.82;1.00;;;;;;;;;;4995731;28;20042;-42
2022/11/18 04:25:18;;;;;;;1.63;0.90;;;;;;;;;;5005068;28;20058;-41
2022/11/18 04:27:43;;;;;;;4.88;1.33;;;;;;;;;;4993286;28;20034;-41
2022/11/18 04:30:09;;;;;;;2.15;1.00;;;;;;;;;;5001557;28;20113;-43
2022/11/18 04:32:35;;;;;;;2.28;0.80;;;;;;;;;;4993758;28;20073;-41
2022/11/18 04:35:01;;;;;;;5.45;1.50;;;;;;;;;;5000860;28;20025;-41
2022/11/18 04:37:26;;;;;;;2.03;0.75;;;;;;;;;;5000655;28;20029;-41
2022/11/18 04:39:51;;;;;;;3.72;1.00;;;;;;;;;;5009232;28;20113;-41
2022/11/18 04:42:17;;;;;;;1.67;0.95;;;;;;;;;;4996807;28;20367;-42
2022/11/18 04:44:42;;;;;;;2.80;1.27;;;;;;;;;;5004723;28;20057;-41
2022/11/18 04:47:08;;;;;;;3.92;1.23;;;;;;;;;;5018813;28;20033;-41
2022/11/18 04:49:34;;;;;;;4.90;1.13;;;;;;;;;;5007468;28;20049;-41
2022/11/18 04:52:00;;;;;;;4.05;1.73;;;;;;;;;;5003411;28;20029;-40
2022/11/18 04:54:26;;;;;;;3.15;1.48;;;;;;;;;;4996151;28;20505;-42
2022/11/18 04:56:52;;;;;;;3.65;1.58;;;;;;;;;;5009105;28;20030;-42
2022/11/18 04:59:20;;;;;;;3.42;1.35;;;;;;;;;;5011864;28;20125;-41
2022/11/18 05:01:47;;;;;;;4.75;1.65;;;;;;;;;;5000982;28;20057;-43
2022/11/18 05:04:15;;;;;;;1.92;0.88;;;;;;;;;;5002350;28;20061;-41
2022/11/18 05:06:40;;;;;;;3.28;0.90;;;;;;;;;;5009688;28;20022;-41
2022/11/18 05:09:06;;;;;;;2.20;1.42;;;;;;;;;;5008320;28;20061;-41
2022/11/18 05:14:15;;;;;;;1.58;0.90;;;;;;;;;;4995229;28;20069;-41
2022/11/18 05:16:41;;;;;;;1.55;0.88;;;;;;;;;;5002253;28;20486;-42
2022/11/18 05:19:06;;;;;;;4.00;1.83;;;;;;;;;;5001916;28;20133;-41
2022/11/18 05:21:32;;;;;;;2.47;1.00;;;;;;;;;;4996563;28;20037;-43
2022/11/18 05:23:58;;;;;;;2.78;1.45;;;;;;;;;;4996113;28;20843;-41
2022/11/18 05:26:24;;;;;;;2.25;1.13;;;;;;;;;;4997026;28;20022;-43
2022/11/18 05:28:50;;;;;;;4.38;1.10;;;;;;;;;;5012496;28;20270;-41
2022/11/18 05:31:16;;;;;;;2.92;1.30;;;;;;;;;;5013423;28;20045;-41
2022/11/18 05:33:42;;;;;;;1.15;0.75;;;;;;;;;;5000161;28;20042;-41
2022/11/18 05:36:18;;;;;;;3.78;1.15;;;;;;;;;;5009795;28;20034;-43
2022/11/18 05:38:44;;;;;;;3.15;1.25;;;;;;;;;;5003070;28;20125;-41
2022/11/18 05:43:09;;;;;;;2.67;0.65;;;;;;;;;;5010967;28;20478;-41
2022/11/18 05:43:55;;;;;;;3.38;0.68;;;;;;;;;;5001240;28;20038;-41
2022/11/18 05:46:21;;;;;;;3.92;1.10;;;;;;;;;;5007928;28;20029;-42
2022/11/18 05:48:46;;;;;;;2.25;0.80;;;;;;;;;;5005037;28;20039;-42
2022/11/18 05:51:12;;;;;;;1.85;0.80;;;;;;;;;;5004087;28;20041;-42
2022/11/18 05:53:37;;;;;;;6.72;1.02;;;;;;;;;;5000986;28;20188;-42
2022/11/18 05:56:09;;;;;;;2.00;1.10;;;;;;;;;;4998522;28;20660;-42
2022/11/18 05:58:34;;;;;;;2.45;0.85;;;;;;;;;;5002290;28;20034;-41
2022/11/18 06:01:03;;;;;;;1.73;0.70;;;;;;;;;;5006288;28;20056;-41
2022/11/18 06:03:30;;;;;;;3.08;0.70;;;;;;;;;;4994405;28;20723;-42
2022/11/18 06:05:59;;;;;;;2.15;0.85;;;;;;;;;;4995017;28;20105;-42
2022/11/18 06:08:33;;;;;;;1.60;0.98;;;;;;;;;;4996912;28;20486;-41
2022/11/18 06:10:59;;;;;;;0.77;0.70;;;;;;;;;;5010473;28;20386;-44
2022/11/18 06:13:30;;;;;;;4.25;1.00;;;;;;;;;;5008072;28;20038;-41
2022/11/18 06:15:56;;;;;;;1.85;0.70;;;;;;;;;;5009081;28;20044;-41
2022/11/18 06:18:25;;;;;;;3.47;1.00;;;;;;;;;;5003860;28;20117;-47
2022/11/18 06:20:53;;;;;;;2.20;1.17;;;;;;;;;;5000510;28;20048;-44
2022/11/18 06:23:19;;;;;;;4.10;1.00;;;;;;;;;;4996923;28;20035;-44
2022/11/18 06:25:45;;;;;;;5.78;1.67;;;;;;;;;;4997093;28;20031;-42
2022/11/18 06:28:13;;;;;;;2.30;1.23;;;;;;;;;;4996378;28;20458;-42
2022/11/18 06:30:39;;;;;;;4.68;1.45;;;;;;;;;;4996429;28;20053;-41
2022/11/18 06:33:04;;;;;;;5.47;1.48;;;;;;;;;;5003282;28;20079;-41
2022/11/18 06:35:30;;;;;;;2.63;1.73;;;;;;;;;;4995455;28;20033;-41
2022/11/18 06:37:55;;;;;;;4.13;1.00;;;;;;;;;;4993771;28;20042;-41
2022/11/18 06:40:20;;;;;;;1.95;1.15;;;;;;;;;;5005999;28;20030;-41
2022/11/18 06:45:30;;;;;;;2.13;1.00;;;;;;;;;;4993331;28;20096;-41
2022/11/18 06:48:03;;;;;;;1.35;0.98;;;;;;;;;;4997754;28;20039;-42
2022/11/18 06:50:28;;;;;;;1.38;0.95;;;;;;;;;;5006777;28;20112;-43
2022/11/18 06:52:54;;;;;;;2.83;0.98;;;;;;;;;;5000340;28;20130;-41
2022/11/18 06:55:19;;;;;;;1.48;0.98;;;;;;;;;;5005278;28;20034;-41
2022/11/18 06:57:45;;;;;;;1.52;0.80;;;;;;;;;;5001683;28;20469;-41
2022/11/18 07:00:11;;;;;;;4.22;0.95;;;;;;;;;;5012635;28;20471;-41
2022/11/18 07:02:37;;;;;;;4.28;1.88;;;;;;;;;;5002304;28;20077;-44
2022/11/18 07:05:03;;;;;;;8.07;1.95;;;;;;;;;;4999182;28;20422;-42
2022/11/18 07:07:29;;;;;;;4.97;2.20;;;;;;;;;;4994462;28;20482;-42
2022/11/18 07:09:54;;;;;;;4.03;1.65;;;;;;;;;;5006988;28;20034;-43
2022/11/18 07:12:20;;;;;;;3.83;2.22;;;;;;;;;;5002229;28;20022;-41
2022/11/18 07:14:46;;;;;;;3.97;2.28;;;;;;;;;;4998371;28;20034;-42
2022/11/18 07:17:11;;;;;;;6.40;2.65;;;;;;;;;;4995689;28;20030;-41
2022/11/18 07:19:38;;;;;;;4.13;2.00;;;;;;;;;;4998793;28;20062;-43
2022/11/18 07:22:03;;;;;;;3.38;1.50;;;;;;;;;;4994535;28;20466;-41
2022/11/18 07:24:29;;;;;;;2.47;0.95;;;;;;;;;;5002599;28;20062;-42
2022/11/18 07:26:54;;;;;;;2.72;1.00;;;;;;;;;;4994863;28;20026;-43
2022/11/18 07:29:19;;;;;;;4.35;1.08;;;;;;;;;;4991308;28;20072;-41
2022/11/18 07:31:45;;;;;;;2.15;0.80;;;;;;;;;;5004275;28;20105;-41
2022/11/18 07:34:11;;;;;;;1.23;0.95;;;;;;;;;;4995489;28;20045;-41
2022/11/18 07:36:36;;;;;;;3.47;0.82;;;;;;;;;;4993384;28;20038;-42
2022/11/18 07:39:04;;;;;;;3.00;1.00;;;;;;;;;;4997013;28;20049;-42
2022/11/18 07:41:30;;;;;;;1.42;0.93;;;;;;;;;;4998356;28;20034;-44
2022/11/18 07:43:57;;;;;;;1.30;1.05;;;;;;;;;;4991403;28;20055;-49
2022/11/18 07:46:24;;;;;;;1.08;0.95;;;;;;;;;;5001171;28;20061;-44
2022/11/18 07:48:52;;;;;;;3.05;0.85;;;;;;;;;;4997294;28;20042;-45
2022/11/18 07:51:19;;;;;;;2.08;0.80;;;;;;;;;;4995734;28;20044;-43
2022/11/18 07:53:45;;;;;;;3.08;1.00;;;;;;;;;;4991439;28;20039;-44
2022/11/18 07:56:11;;;;;;;1.23;0.50;;;;;;;;;;4999268;28;20034;-43
2022/11/18 07:58:37;;;;;;;1.33;0.70;;;;;;;;;;4992659;28;20326;-41
2022/11/18 08:01:11;;;;;;;5.63;0.85;;;;;;;;;;4999393;28;20037;-42
2022/11/18 08:03:37;;;;;;;1.30;0.73;;;;;;;;;;4997079;28;20046;-42
2022/11/18 08:06:04;;;;;;;1.00;0.90;;;;;;;;;;4998399;28;20030;-42
2022/11/18 08:08:29;;;;;;;2.35;0.80;;;;;;;;;;4994218;28;20030;-42
2022/11/18 08:10:59;;;;;;;2.28;1.20;;;;;;;;;;5003192;28;20648;-42
2022/11/18 08:13:26;;;;;;;3.88;1.00;;;;;;;;;;5001931;28;20391;-41
2022/11/18 08:15:52;;;;;;;2.92;1.05;;;;;;;;;;5001296;28;20390;-42
2022/11/18 08:18:17;;;;;;;4.05;1.10;;;;;;;;;;4998002;28;20044;-43
2022/11/18 08:20:44;;;;;;;1.25;1.00;;;;;;;;;;4993247;28;20374;-42
2022/11/18 08:23:10;;;;;;;1.50;0.63;;;;;;;;;;4993492;28;20133;-42
2022/11/18 08:25:35;;;;;;;2.38;1.08;;;;;;;;;;4995668;28;20110;-41
2022/11/18 08:28:00;;;;;;;3.70;1.48;;;;;;;;;;4991305;28;20567;-42
2022/11/18 08:30:26;;;;;;;5.10;1.92;;;;;;;;;;4998976;28;20042;-42
2022/11/18 08:32:54;;;;;;;2.78;1.00;;;;;;;;;;4991369;28;20519;-44
2022/11/18 08:35:19;;;;;;;4.53;1.38;;;;;;;;;;4996521;28;20023;-43
2022/11/18 08:37:45;;;;;;;5.80;1.27;;;;;;;;;;4990332;28;20074;-44
2022/11/18 08:40:10;;;;;;;2.47;1.00;;;;;;;;;;4993093;28;20026;-42
2022/11/18 08:42:36;;;;;;;5.53;1.23;;;;;;;;;;4990706;28;20050;-42
2022/11/18 08:45:04;;;;;;;7.63;1.15;;;;;;;;;;4992930;28;20026;-44
2022/11/18 08:47:29;;;;;;;4.57;1.10;;;;;;;;;;4994176;28;20498;-42
2022/11/18 08:49:55;;;;;;;8.30;4.60;;;;;;;;;;4998905;28;20038;-41
2022/11/18 08:52:20;;;;;;;5.07;3.60;;;;;;;;;;4993209;28;20034;-42
2022/11/18 08:54:45;;;;;;;6.30;2.67;;;;;;;;;;4997951;28;20026;-42
2022/11/18 08:57:11;;;;;;;3.28;1.50;;;;;;;;;;4997982;28;20110;-42
2022/11/18 08:59:36;;;;;;;8.23;1.95;;;;;;;;;;4997145;28;20046;-42
2022/11/18 09:02:01;;;;;;;5.95;1.30;;;;;;;;;;5002139;28;20022;-47
2022/11/18 09:04:27;;;;;;;2.78;1.35;;;;;;;;;;4994413;28;20153;-43
2022/11/18 09:06:52;;;;;;;5.75;2.13;;;;;;;;;;5007195;28;20065;-42
2022/11/18 09:09:17;;;;;;;5.32;1.98;;;;;;;;;;4998109;28;20045;-42
2022/11/18 09:11:43;;;;;;;7.68;1.58;;;;;;;;;;4999451;28;20026;-45
2022/11/18 09:14:10;;;;;;;3.83;1.55;;;;;;;;;;4999864;28;20084;-44
2022/11/18 09:16:36;;;;;;;5.47;1.85;;;;;;;;;;5003080;28;20026;-41
2022/11/18 09:19:02;;;;;;;2.60;1.20;;;;;;;;;;4994990;28;20519;-42
2022/11/18 09:21:27;;;;;;;4.32;1.73;;;;;;;;;;5004285;28;20030;-42
2022/11/18 09:23:53;;;;;;;3.90;1.05;;;;;;;;;;4997107;28;20380;-42
2022/11/18 09:26:21;;;;;;;5.40;1.10;;;;;;;;;;4995022;28;20165;-50
2022/11/18 09:28:47;;;;;;;3.40;1.10;;;;;;;;;;4998433;28;20038;-43
2022/11/18 09:31:14;;;;;;;8.15;1.30;;;;;;;;;;5005901;28;20064;-42
2022/11/18 09:33:40;;;;;;;1.42;1.00;;;;;;;;;;4998539;28;20046;-44
2022/11/18 09:36:17;;;;;;;2.15;0.80;;;;;;;;;;4998321;28;20045;-42
2022/11/18 09:38:43;;;;;;;3.60;1.15;;;;;;;;;;4996450;28;20738;-46
2022/11/18 09:41:08;;;;;;;2.83;0.90;;;;;;;;;;4998703;28;20030;-44
2022/11/18 09:43:43;;;;;;;2.60;1.20;;;;;;;;;;4999282;28;20121;-42
2022/11/18 09:46:46;;;;;;;1.52;0.68;;;;;;;;;;5001260;28;20583;-45
2022/11/18 09:49:23;;;;;;;3.35;1.00;;;;;;;;;;4958910;28;20042;-43
2022/11/18 09:51:50;;;;;;;1.55;0.63;;;;;;;;;;4967897;28;20103;-42
2022/11/18 09:54:29;;;;;;;4.50;0.75;;;;;;;;;;4961373;28;20078;-44
2022/11/18 09:56:55;;;;;;;1.67;0.90;;;;;;;;;;4964793;28;20039;-42
2022/11/18 09:59:24;;;;;;;1.70;0.88;;;;;;;;;;4967935;28;20626;-43
2022/11/18 10:01:51;;;;;;;2.92;1.30;;;;;;;;;;4963111;28;20043;-43
2022/11/18 10:04:19;;;;;;;2.97;1.75;;;;;;;;;;4952689;28;20244;-43
2022/11/18 10:06:46;;;;;;;1.25;1.10;;;;;;;;;;4964079;28;20097;-42
2022/11/18 10:09:37;;;;;;;3.22;1.13;;;;;;;;;;4969578;28;20047;-44
2022/11/18 10:12:11;;;;;;;1.80;1.70;;;;;;;;;;4942613;28;20130;-44
2022/11/18 10:15:14;;;;;;;4.57;1.23;;;;;;;;;;4969575;28;20590;-42
2022/11/18 10:18:03;;;;;;;4.10;0.90;;;;;;;;;;4961374;28;20048;-42
2022/11/18 10:20:31;;;;;;;1.08;0.80;;;;;;;;;;4961200;28;20061;-44
2022/11/18 10:23:27;;;;;;;2.78;0.65;;;;;;;;;;4956665;28;20050;-49
2022/11/18 10:25:53;;;;;;;5.65;1.27;;;;;;;;;;4935564;28;20043;-46
2022/11/18 10:28:21;;;;;;;3.78;0.80;;;;;;;;;;4956529;28;20519;-42
2022/11/18 10:30:47;;;;;;;1.00;0.63;;;;;;;;;;4963883;28;20137;-45
2022/11/18 10:33:21;;;;;;;1.25;0.77;;;;;;;;;;4952588;28;20242;-43
2022/11/18 10:35:48;;;;;;;1.90;0.98;;;;;;;;;;4956932;28;20350;-41
2022/11/18 10:38:13;;;;;;;1.60;1.17;;;;;;;;;;4958182;28;20039;-48
2022/11/18 10:41:04;;;;;;;1.02;0.82;;;;;;;;;;4954107;28;20097;-42
2022/11/18 10:43:47;;;;;;;1.05;0.95;;;;;;;;;;4961269;28;20046;-46
2022/11/18 10:46:29;;;;;;;1.73;1.00;;;;;;;;;;4954377;28;20038;-45
2022/11/18 10:49:15;;;;;;;1.03;1.00;;;;;;;;;;4951062;28;20118;-43
2022/11/18 10:52:06;;;;;;;1.88;1.60;;;;;;;;;;4950890;28;20552;-42
2022/11/18 10:54:32;;;;;;;1.17;1.08;;;;;;;;;;4946719;28;20934;-45
2022/11/18 10:57:21;;;;;;;3.58;1.45;;;;;;;;;;4961331;28;20049;-46
2022/11/18 10:59:50;;;;;;;5.55;1.30;;;;;;;;;;4950721;28;20043;-43
2022/11/18 11:02:19;;;;;;;1.08;0.98;;;;;;;;;;4968863;28;20192;-48
2022/11/18 11:04:48;;;;;;;1.75;0.82;;;;;;;;;;5003131;28;20033;-49
2022/11/18 11:07:32;;;;;;;5.45;1.30;;;;;;;;;;4999792;28;20040;-47
2022/11/18 11:10:01;;;;;;;2.05;0.93;;;;;;;;;;4996342;28;20517;-50
2022/11/18 11:12:30;;;;;;;1.75;1.20;;;;;;;;;;4994267;28;20034;-48
2022/11/18 11:14:59;;;;;;;1.65;0.70;;;;;;;;;;4996647;28;20026;-43
2022/11/18 11:17:44;;;;;;;0.63;0.60;;;;;;;;;;4994122;28;20049;-45
2022/11/18 11:20:20;;;;;;;0.52;0.35;;;;;;;;;;4991255;28;20464;-45
2022/11/18 11:22:46;;;;;;;0.82;0.40;;;;;;;;;;4995670;28;20128;-45
2022/11/18 11:25:17;;;;;;;0.50;0.50;;;;;;;;;;4998092;28;20689;-44
2022/11/18 11:27:53;;;;;;;0.50;0.50;;;;;;;;;;4992218;28;20038;-45
2022/11/18 11:30:21;;;;;;;3.05;0.80;;;;;;;;;;4994379;28;20034;-48
2022/11/18 11:33:03;;;;;;;1.00;1.00;;;;;;;;;;4991461;28;20511;-49
2022/11/18 11:35:48;;;;;;;1.85;0.88;;;;;;;;;;4997234;28;20671;-44
2022/11/18 11:38:25;;;;;;;0.85;0.52;;;;;;;;;;4992829;28;20042;-48
2022/11/18 11:41:05;;;;;;;1.75;0.82;;;;;;;;;;4998703;28;20033;-47
2022/11/18 11:44:09;;;;;;;1.35;0.55;;;;;;;;;;4995572;28;20046;-49
2022/11/18 11:50:02;;;;;;;3.13;0.70;;;;;;;;;;4954678;28;20133;-45
2022/11/18 11:52:41;;;;;;;2.33;0.90;;;;;;;;;;4952931;28;20099;-48
2022/11/18 11:55:27;;;;;;;0.80;0.80;;;;;;;;;;4959558;28;20093;-47
2022/11/18 11:57:55;;;;;;;5.57;1.20;;;;;;;;;;4965917;28;20051;-46
2022/11/18 12:00:20;;;;;;;1.20;1.10;;;;;;;;;;4957964;28;20045;-44
2022/11/18 12:03:20;;;;;;;3.33;1.00;;;;;;;;;;4944830;28;20043;-43
2022/11/18 12:05:45;;;;;;;1.92;1.13;;;;;;;;;;4954995;28;20506;-44
2022/11/18 12:08:30;;;;;;;1.70;1.30;;;;;;;;;;4957599;28;20039;-42
2022/11/18 12:11:01;;;;;;;4.18;1.10;;;;;;;;;;4957545;28;20114;-42
2022/11/18 12:13:44;;;;;;;2.07;1.27;;;;;;;;;;4965675;28;20508;-42
2022/11/18 12:16:27;;;;;;;4.38;1.45;;;;;;;;;;4961828;28;20478;-43
2022/11/18 12:18:58;;;;;;;1.15;0.98;;;;;;;;;;4958574;28;20691;-43
2022/11/18 12:21:45;;;;;;;2.05;0.80;;;;;;;;;;4963418;28;20038;-42
2022/11/18 12:24:16;;;;;;;2.15;0.80;;;;;;;;;;4995012;28;20095;-42
2022/11/18 12:26:43;;;;;;;3.50;1.00;;;;;;;;;;5004057;28;20022;-43
2022/11/18 12:29:17;;;;;;;0.40;0.40;;;;;;;;;;4992800;28;20049;-42
2022/11/18 12:32:04;;;;;;;1.35;0.80;;;;;;;;;;4994998;28;20052;-42
2022/11/18 12:34:41;;;;;;;2.88;0.98;;;;;;;;;;4978344;28;20873;-42
2022/11/18 12:37:24;;;;;;;1.00;0.70;;;;;;;;;;4986374;28;20104;-42
2022/11/18 12:39:56;;;;;;;2.25;0.80;;;;;;;;;;4982066;28;20050;-43
2022/11/18 12:45:38;;;;;;;1.27;0.50;;;;;;;;;;4981639;28;20657;-42
2022/11/18 12:48:28;;;;;;;0.82;0.52;;;;;;;;;;4984763;28;20054;-42
2022/11/18 12:50:59;;;;;;;0.50;0.50;;;;;;;;;;4981535;28;20053;-42
2022/11/18 12:53:38;;;;;;;2.75;0.60;;;;;;;;;;4981449;28;20057;-42
2022/11/18 12:56:15;;;;;;;1.48;0.50;;;;;;;;;;4985374;28;20387;-42
2022/11/18 12:58:46;;;;;;;0.93;0.52;;;;;;;;;;4979607;28;20072;-45
2022/11/18 13:01:14;;;;;;;0.57;0.50;;;;;;;;;;4980003;28;20058;-42
2022/11/18 13:03:40;;;;;;;1.13;0.40;;;;;;;;;;4981948;28;20038;-42
2022/11/18 13:06:17;;;;;;;1.60;0.32;;;;;;;;;;4985782;28;20046;-42
2022/11/18 13:08:42;;;;;;;0.82;0.47;;;;;;;;;;4975196;28;20035;-43
2022/11/18 13:19:27;;;;;;;2.58;1.50;;;;;;;;;;5000616;28;20111;-43
2022/11/18 13:24:49;;;;;;;3.63;1.30;;;;;;;;;;5003852;28;20140;-42
2022/11/18 13:28:06;;;;;;;1.13;0.75;;;;;;;;;;5007010;28;20057;-42
2022/11/18 13:30:34;;;;;;;2.22;0.70;;;;;;;;;;4936610;29;20143;-42
2022/11/18 13:32:59;;;;;;;0.65;0.65;;;;;;;;;;4938519;29;20074;-42
2022/11/18 13:35:27;;;;;;;0.95;0.60;;;;;;;;;;4939081;29;20055;-42
2022/11/18 13:37:58;;;;;;;2.85;0.50;;;;;;;;;;4943228;28;20035;-42
2022/11/18 13:40:24;;;;;;;0.98;0.52;;;;;;;;;;4933303;29;20654;-42
2022/11/18 13:42:49;;;;;;;2.78;0.43;;;;;;;;;;4937032;29;20039;-42
2022/11/18 13:45:15;;;;;;;0.77;0.50;;;;;;;;;;4935471;29;20034;-42
2022/11/18 13:47:51;;;;;;;1.83;0.60;;;;;;;;;;4944891;29;20098;-42
2022/11/18 13:50:26;;;;;;;0.57;0.50;;;;;;;;;;4934520;28;20052;-43
2022/11/18 13:52:57;;;;;;;0.90;0.60;;;;;;;;;;4948861;28;20047;-42
2022/11/18 13:55:25;;;;;;;2.10;0.57;;;;;;;;;;4938125;28;20039;-44
2022/11/18 13:58:16;;;;;;;0.70;0.63;;;;;;;;;;4940744;29;20047;-43
2022/11/18 14:00:42;;;;;;;1.55;0.82;;;;;;;;;;4934980;28;20501;-42
2022/11/18 14:03:49;;;;;;;2.97;0.70;;;;;;;;;;4942532;29;20090;-44
2022/11/18 14:06:27;;;;;;;4.57;0.88;;;;;;;;;;4971156;28;20038;-44
2022/11/18 14:09:14;;;;;;;2.47;1.15;;;;;;;;;;4993726;28;20038;-42
2022/11/18 14:11:42;;;;;;;1.42;0.98;;;;;;;;;;5006719;28;20042;-44
2022/11/18 14:14:09;;;;;;;2.17;0.60;;;;;;;;;;5002056;28;20049;-44
2022/11/18 14:16:40;;;;;;;2.97;0.77;;;;;;;;;;5000791;28;20030;-42
2022/11/18 14:19:11;;;;;;;0.65;0.60;;;;;;;;;;5000278;28;20050;-42
2022/11/18 14:21:37;;;;;;;1.10;1.00;;;;;;;;;;4999665;28;20140;-42
2022/11/18 14:24:02;;;;;;;3.60;0.80;;;;;;;;;;5007585;28;20065;-42
2022/11/18 14:26:30;;;;;;;0.82;0.60;;;;;;;;;;5004682;28;20033;-42
2022/11/18 14:29:02;;;;;;;1.35;1.23;;;;;;;;;;5001085;28;20061;-45
2022/11/18 14:31:30;;;;;;;1.00;0.98;;;;;;;;;;4998171;28;20065;-50
2022/11/18 14:34:17;;;;;;;1.20;0.60;;;;;;;;;;4995504;28;20034;-44
2022/11/18 14:36:44;;;;;;;2.35;0.80;;;;;;;;;;5007487;28;20037;-45
2022/11/18 14:39:30;;;;;;;1.02;0.65;;;;;;;;;;5003639;28;20042;-49
2022/11/18 14:41:56;;;;;;;0.98;0.70;;;;;;;;;;4997517;28;20491;-45
2022/11/18 14:44:24;;;;;;;1.35;0.52;;;;;;;;;;4995789;28;20077;-43
2022/11/18 14:47:02;;;;;;;1.55;0.70;;;;;;;;;;5006485;28;20030;-42
2022/11/18 14:49:30;;;;;;;0.82;0.73;;;;;;;;;;5000983;28;20408;-43
2022/11/18 14:51:56;;;;;;;2.40;0.80;;;;;;;;;;4992957;28;20049;-44
2022/11/18 14:54:26;;;;;;;1.13;0.88;;;;;;;;;;5004438;28;20088;-42
2022/11/18 14:56:55;;;;;;;1.88;1.17;;;;;;;;;;5001315;28;20014;-43
2022/11/18 14:59:21;;;;;;;4.93;0.90;;;;;;;;;;4999417;28;20084;-43
2022/11/18 15:01:46;;;;;;;3.92;3.17;;;;;;;;;;5005864;28;20303;-43
2022/11/18 15:04:16;;;;;;;3.30;1.75;;;;;;;;;;4999938;28;20122;-43
2022/11/18 15:06:41;;;;;;;3.53;1.15;;;;;;;;;;5000473;28;20029;-47
2022/11/18 15:09:07;;;;;;;0.80;0.80;;;;;;;;;;5002446;28;20038;-42
2022/11/18 15:11:33;;;;;;;3.85;1.60;;;;;;;;;;5006017;28;20091;-42
2022/11/18 15:13:58;;;;;;;5.90;1.17;;;;;;;;;;5001773;28;20069;-44
2022/11/18 15:16:26;;;;;;;1.10;1.02;;;;;;;;;;4999772;28;20487;-45
2022/11/18 15:18:55;;;;;;;0.80;0.80;;;;;;;;;;5004673;28;20045;-42
2022/11/18 15:21:21;;;;;;;1.92;0.85;;;;;;;;;;5003885;28;20044;-44
2022/11/18 15:23:46;;;;;;;2.42;0.90;;;;;;;;;;4998332;28;20458;-43
2022/11/18 15:26:36;;;;;;;0.75;0.75;;;;;;;;;;4993121;28;20033;-44
2022/11/18 15:29:02;;;;;;;3.70;1.00;;;;;;;;;;5003702;28;20046;-44